• Join FlightAware (Why Join?)
  • Login
  • US Flag 
01:41AM EDT


 

Airport Tracker/Info


-or-


 

Live Flight TrackerFlight Track Log ✈ UAL1583 ✈ 21-Jul-2013 ✈ KORD - KLGA

Flight Track Log - Related Links

Times and Time Zones

All times are in EDT time to prevent confusion due to time zone crossing. See the UAL1583 flight status page for this flight to view local times or setup timezone preferences in your user account.

Time Position Orientation Groundspeed Altitude Reporting Facility
EDT Latitude Longitude Course Direction KTS MPH feet Rate Location/Type
09:48PM 41.9833 -87.8667 85° East 164 189 2,000  Level Chicago TRACON
09:49PM 41.9833 -87.7833 90° East 227 261 4,100 2,280 Climbing Chicago TRACON
09:50PM 41.9504 -87.3713 96° East  Level FlightAware Approximate
09:50PM 41.9911 -87.6836 84° East 273 314 6,800  Level Chicago Center
09:51PM 41.9378 -87.1956 95° East  Level FlightAware Approximate
09:51PM 41.9961 -87.5736 86° East 293 337 9,800  Level Chicago Center
09:52PM 41.9333 -87.0193 90° East  Level FlightAware Approximate
09:52PM 42.0000 -87.4567 87° East 310 357 13,200  Level Chicago Center
09:53PM 41.9411 -86.8432 85° East  Level FlightAware Approximate
09:53PM 41.9975 -87.3344 92° East 324 373 15,500  Level Chicago Center
09:54PM 41.9808 -87.1936 99° East 377 434 17,400 2,400 Climbing Chicago Center
09:55PM 41.9539 -87.0236 102° East 393 452 20,500 2,580 Climbing Chicago Center
09:56PM 41.9486 -86.8742 93° East 401 461 22,800 1,980 Climbing Chicago Center
09:57PM 41.9408 -86.7206 94° East 411 473 24,600 1,860 Climbing Chicago Center
09:58PM 41.9322 -86.5475 94° East 427 491 26,700 1,860 Climbing Chicago Center
09:59PM 41.9231 -86.3869 94° East 432 497 28,500 1,560 Climbing Chicago Center
10:00PM 41.9150 -86.2228 94° East 440 506 30,000 1,260 Climbing Chicago Center
10:01PM 41.9044 -86.0531 95° East 453 521 31,200 1,020 Climbing Chicago Center
10:02PM 41.8947 -85.8789 94° East 464 534 32,200 840 Climbing Chicago Center
10:04PM 41.8839 -85.6983 95° East 481 554 33,000 660 Climbing Chicago Center
10:05PM 41.8733 -85.5094 94° East 501 577 33,600 780 Climbing Chicago Center
10:06PM 41.8592 -85.2747 95° East 518 596 34,700 1,020 Climbing Chicago Center
10:07PM 41.8469 -85.0792 95° East 524 603 35,800 1,020 Climbing Chicago Center
10:08PM 41.8325 -84.8847 96° East 524 603 36,900 960 Climbing Chicago Center
10:09PM 41.8186 -84.6958 96° East 514 592 37,800 780 Climbing Chicago Center
10:09PM 41.8081 -84.5422 95° East 519 597 38,400 660 Climbing Cleveland Center
10:10PM 41.7958 -84.3547 95° East 513 590 39,000 300 Climbing Cleveland Center
10:11PM 41.7783 -84.1836 98° East 506 582 39,000  Level Cleveland Center
10:12PM 41.7653 -83.9964 95° East 506 582 39,000  Level Cleveland Center
10:13PM 41.7478 -83.8061 97° East 506 582 39,000  Level Cleveland Center
10:14PM 41.7342 -83.6164 95° East 506 582 39,000  Level Cleveland Center
10:15PM 41.7183 -83.4264 96° East 506 582 39,000  Level Cleveland Center
10:16PM 41.7025 -83.2169 96° East 511 588 39,000  Level Cleveland Center
10:17PM 41.6878 -83.0300 96° East 511 588 39,000  Level Cleveland Center
10:18PM 41.6708 -82.8431 97° East 506 582 39,000  Level Cleveland Center
10:19PM 41.6556 -82.6536 96° East 506 582 39,000  Level Cleveland Center
10:20PM 41.6439 -82.4892 95° East 500 575 39,000  Level Cleveland Center
10:21PM 41.6242 -82.2858 97° East 500 575 39,000  Level Cleveland Center
10:22PM 41.6081 -82.0994 97° East 505 581 39,000  Level Cleveland Center
10:23PM 41.5917 -81.9131 97° East 505 581 39,000  Level Cleveland Center
10:24PM 41.5728 -81.7239 98° East 505 581 39,000  Level Cleveland Center
10:25PM 41.5558 -81.5378 97° East 505 581 39,000  Level Cleveland Center
10:26PM 41.5361 -81.3681 99° East 512 589 39,000  Level Cleveland Center
10:27PM 41.5186 -81.1767 97° East 512 589 39,000  Level Cleveland Center
10:28PM 41.5006 -80.9850 97° East 520 598 39,000  Level Cleveland Center
10:29PM 41.4844 -80.7994 97° East 521 600 39,000  Level Cleveland Center
10:30PM 41.4658 -80.6053 97° East 521 600 39,000  Level Cleveland Center
10:31PM 41.4469 -80.3947 97° East 521 600 39,000  Level Cleveland Center
10:32PM 41.4319 -80.2064 96° East 521 600 39,000  Level Cleveland Center
10:33PM 41.4144 -80.0156 97° East 521 600 39,000  Level Cleveland Center
10:34PM 41.3925 -79.8303 99° East 516 594 39,000  Level Cleveland Center
10:35PM 41.3744 -79.6422 97° East 516 594 39,000  Level Cleveland Center
10:36PM 41.3561 -79.4489 97° East 523 602 39,000  Level Cleveland Center
10:37PM 41.3375 -79.2667 98° East 518 596 39,000  Level Cleveland Center
10:38PM 41.3186 -79.0792 98° East 513 590 39,000  Level Cleveland Center
10:39PM 41.2992 -78.8917 98° East 507 583 39,000  Level Cleveland Center
10:40PM 41.2797 -78.7042 98° East 507 583 39,000 -900 Level Cleveland Center
10:42PM 41.2425 -78.3733 98° East 500 575 36,500 -2,040 Descending New York Center
10:43PM 41.2189 -78.1858 99° East 506 582 33,500 -1,800 Descending New York Center
10:44PM 41.1972 -77.9958 99° East 506 582 33,000 -300 Descending New York Center
10:45PM 41.1733 -77.8058 99° East 506 582 33,000  Level New York Center
10:46PM 41.1492 -77.6158 100° East 506 582 33,000  Level New York Center
10:47PM 41.1244 -77.4261 100° East 511 588 33,000 -840 Level New York Center
10:48PM 41.1006 -77.2556 100° East 511 588 31,400 -2,040 Descending New York Center
10:49PM 41.0753 -77.0686 100° East 511 588 28,900 780 Descending New York Center
10:50PM 41.0514 -76.8878 100° East 505 581 33,000 -2,220 Climbing New York Center
10:51PM 41.0289 -76.7122 100° East 494 568 24,500 -5,400 Descending New York Center
10:52PM 40.9931 -76.5525 107° East 471 542 22,300 -2,220 Descending New York Center
10:53PM 40.9567 -76.3983 107° East 451 519 20,200 -2,100 Descending New York Center
10:54PM 40.9242 -76.2528 106° East 426 490 18,100 -2,040 Descending New York Center
10:55PM 40.8853 -76.0986 108° East 407 468 16,200 -1,380 Descending New York Center
10:56PM 40.8608 -75.9897 106° East 392 451 15,400 -1,020 Descending New York Center
10:57PM 40.8256 -75.8469 108° East 387 445 14,200 -1,200 Descending New York Center
10:58PM 40.7914 -75.7158 109° East 381 438 13,000 -600 Descending New York Center
10:59PM 40.7575 -75.5764 108° East 370 426 13,000  Level New York Center
11:00PM 40.7167 -75.4531 114° Southeast 370 426 13,000  Level New York Center
11:01PM 40.6736 -75.3294 115° Southeast 370 426 13,000  Level New York Center
11:02PM 40.6344 -75.2067 113° Southeast 363 418 13,000 -1,020 Level New York Center
11:03PM 40.5950 -75.0892 114° Southeast 358 412 11,000 -1,500 Descending New York Center
11:04PM 40.5556 -74.9694 113° Southeast 358 412 10,000 -540 Descending New York Center
11:05PM 40.5225 -74.8500 110° East 353 406 10,000  Level New York Center
11:06PM 40.4883 -74.7442 113° Southeast 353 406 10,000 -480 Level New York Center
11:07PM 40.4547 -74.6278 111° Southeast 322 371 9,100 -540 Descending New York Center
11:08PM 40.4353 -74.5258 104° East 297 342 9,000 -900 Descending New York Center
11:09PM 40.4636 -74.4208 70° East 283 326 7,400 -1,020 Descending New York Center
11:10PM 40.4875 -74.3211 72° East 283 326 7,000 -480 Descending New York Center
11:11PM 40.5133 -74.2217 71° East 283 326 6,500 -900 Descending New York Center
11:12PM 40.5408 -74.1328 68° East 283 326 5,200 -1,260 Descending New York Center
11:13PM 40.6011 -74.0647 41° Northeast 255 293 4,000 -660 Descending New York Center
11:14PM 40.6642 -74.0431 15° North 245 282 4,000  Level New York Center
11:15PM 40.7500 -74.0167 13° North 253 291 4,100  Climbing New York TRACON
11:16PM 40.8167 -73.9833 21° North 254 292 4,100 -60 Level New York TRACON
11:17PM 40.8667 -73.9333 37° Northeast 230 265 4,000 -540 Descending New York TRACON
11:18PM 40.9167 -73.9000 27° Northeast 204 235 3,100 -900 Descending New York TRACON